sensor_id;sensor_type;location;lat;lon;timestamp;temperature;humidity
64858;SHT30;51335;51.148;6.950;2022-11-20T00:00:21;3.43;85.87
64858;SHT30;51335;51.148;6.950;2022-11-20T00:00:51;3.43;85.77
64858;SHT30;51335;51.148;6.950;2022-11-20T00:01:24;3.43;85.67
64858;SHT30;51335;51.148;6.950;2022-11-20T00:01:54;3.42;85.74
64858;SHT30;51335;51.148;6.950;2022-11-20T00:02:24;3.40;85.77
64858;SHT30;51335;51.148;6.950;2022-11-20T00:02:55;3.43;85.82
64858;SHT30;51335;51.148;6.950;2022-11-20T00:03:25;3.42;85.96
64858;SHT30;51335;51.148;6.950;2022-11-20T00:03:56;3.43;86.00
64858;SHT30;51335;51.148;6.950;2022-11-20T00:04:27;3.40;86.05
64858;SHT30;51335;51.148;6.950;2022-11-20T00:04:57;3.43;86.04
64858;SHT30;51335;51.148;6.950;2022-11-20T00:05:27;3.42;85.77
64858;SHT30;51335;51.148;6.950;2022-11-20T00:06:02;3.43;85.84
64858;SHT30;51335;51.148;6.950;2022-11-20T00:06:32;3.40;85.74
64858;SHT30;51335;51.148;6.950;2022-11-20T00:07:02;3.42;85.76
64858;SHT30;51335;51.148;6.950;2022-11-20T00:07:33;3.46;85.44
64858;SHT30;51335;51.148;6.950;2022-11-20T00:08:03;3.51;85.13
64858;SHT30;51335;51.148;6.950;2022-11-20T00:08:34;3.48;85.07
64858;SHT30;51335;51.148;6.950;2022-11-20T00:09:04;3.42;85.35
64858;SHT30;51335;51.148;6.950;2022-11-20T00:09:34;3.43;85.46
64858;SHT30;51335;51.148;6.950;2022-11-20T00:10:05;3.45;85.61
64858;SHT30;51335;51.148;6.950;2022-11-20T00:10:39;3.42;85.66
64858;SHT30;51335;51.148;6.950;2022-11-20T00:11:15;3.40;85.72
64858;SHT30;51335;51.148;6.950;2022-11-20T00:11:46;3.42;85.90
64858;SHT30;51335;51.148;6.950;2022-11-20T00:12:16;3.38;86.03
64858;SHT30;51335;51.148;6.950;2022-11-20T00:12:46;3.38;86.04
64858;SHT30;51335;51.148;6.950;2022-11-20T00:13:17;3.38;86.10
64858;SHT30;51335;51.148;6.950;2022-11-20T00:13:49;3.36;86.23
64858;SHT30;51335;51.148;6.950;2022-11-20T00:14:20;3.38;86.32
64858;SHT30;51335;51.148;6.950;2022-11-20T00:14:50;3.39;86.32
64858;SHT30;51335;51.148;6.950;2022-11-20T00:15:20;3.34;86.20
64858;SHT30;51335;51.148;6.950;2022-11-20T00:15:57;3.34;86.39
64858;SHT30;51335;51.148;6.950;2022-11-20T00:16:30;3.29;86.24
64858;SHT30;51335;51.148;6.950;2022-11-20T00:17:01;3.31;86.26
64858;SHT30;51335;51.148;6.950;2022-11-20T00:17:31;3.32;86.27
64858;SHT30;51335;51.148;6.950;2022-11-20T00:18:01;3.38;86.25
64858;SHT30;51335;51.148;6.950;2022-11-20T00:18:33;3.35;86.18
64858;SHT30;51335;51.148;6.950;2022-11-20T00:19:03;3.38;86.42
64858;SHT30;51335;51.148;6.950;2022-11-20T00:19:34;3.34;86.77
64858;SHT30;51335;51.148;6.950;2022-11-20T00:20:04;3.35;87.08
64858;SHT30;51335;51.148;6.950;2022-11-20T00:20:35;3.34;87.07
64858;SHT30;51335;51.148;6.950;2022-11-20T00:21:16;3.36;86.98
64858;SHT30;51335;51.148;6.950;2022-11-20T00:21:47;3.32;86.90
64858;SHT30;51335;51.148;6.950;2022-11-20T00:22:17;3.34;86.96
64858;SHT30;51335;51.148;6.950;2022-11-20T00:22:47;3.35;86.97
64858;SHT30;51335;51.148;6.950;2022-11-20T00:23:18;3.32;87.04
64858;SHT30;51335;51.148;6.950;2022-11-20T00:23:49;3.35;86.98
64858;SHT30;51335;51.148;6.950;2022-11-20T00:24:19;3.39;87.00
64858;SHT30;51335;51.148;6.950;2022-11-20T00:24:50;3.34;86.85
64858;SHT30;51335;51.148;6.950;2022-11-20T00:25:20;3.34;86.50
64858;SHT30;51335;51.148;6.950;2022-11-20T00:25:50;3.35;86.66
64858;SHT30;51335;51.148;6.950;2022-11-20T00:26:22;3.36;86.81
64858;SHT30;51335;51.148;6.950;2022-11-20T00:26:53;3.34;86.57
64858;SHT30;51335;51.148;6.950;2022-11-20T00:27:23;3.31;86.50
64858;SHT30;51335;51.148;6.950;2022-11-20T00:27:53;3.32;86.53
64858;SHT30;51335;51.148;6.950;2022-11-20T00:28:24;3.32;86.63
64858;SHT30;51335;51.148;6.950;2022-11-20T00:28:59;3.34;86.66
64858;SHT30;51335;51.148;6.950;2022-11-20T00:29:30;3.32;86.61
64858;SHT30;51335;51.148;6.950;2022-11-20T00:30:00;3.32;86.44
64858;SHT30;51335;51.148;6.950;2022-11-20T00:30:30;3.32;86.17
64858;SHT30;51335;51.148;6.950;2022-11-20T00:31:02;3.34;86.24
64858;SHT30;51335;51.148;6.950;2022-11-20T00:31:32;3.35;86.22
64858;SHT30;51335;51.148;6.950;2022-11-20T00:32:03;3.31;86.44
64858;SHT30;51335;51.148;6.950;2022-11-20T00:32:33;3.31;86.49
64858;SHT30;51335;51.148;6.950;2022-11-20T00:33:03;3.28;86.56
64858;SHT30;51335;51.148;6.950;2022-11-20T00:33:34;3.26;86.51
64858;SHT30;51335;51.148;6.950;2022-11-20T00:34:04;3.26;86.50
64858;SHT30;51335;51.148;6.950;2022-11-20T00:34:35;3.28;86.54
64858;SHT30;51335;51.148;6.950;2022-11-20T00:35:05;3.28;86.35
64858;SHT30;51335;51.148;6.950;2022-11-20T00:35:35;3.29;86.40
64858;SHT30;51335;51.148;6.950;2022-11-20T00:36:09;3.28;86.42
64858;SHT30;51335;51.148;6.950;2022-11-20T00:36:39;3.25;86.49
64858;SHT30;51335;51.148;6.950;2022-11-20T00:37:09;3.26;86.55
64858;SHT30;51335;51.148;6.950;2022-11-20T00:37:40;3.29;86.64
64858;SHT30;51335;51.148;6.950;2022-11-20T00:38:10;3.29;86.72
64858;SHT30;51335;51.148;6.950;2022-11-20T00:38:40;3.31;86.73
64858;SHT30;51335;51.148;6.950;2022-11-20T00:39:11;3.28;86.73
64858;SHT30;51335;51.148;6.950;2022-11-20T00:39:41;3.28;86.76
64858;SHT30;51335;51.148;6.950;2022-11-20T00:40:11;3.29;86.82
64858;SHT30;51335;51.148;6.950;2022-11-20T00:40:42;3.32;86.80
64858;SHT30;51335;51.148;6.950;2022-11-20T00:41:14;3.32;86.66
64858;SHT30;51335;51.148;6.950;2022-11-20T00:41:45;3.32;86.72
64858;SHT30;51335;51.148;6.950;2022-11-20T00:42:15;3.31;86.65
64858;SHT30;51335;51.148;6.950;2022-11-20T00:42:45;3.28;86.63
64858;SHT30;51335;51.148;6.950;2022-11-20T00:43:16;3.32;86.69
64858;SHT30;51335;51.148;6.950;2022-11-20T00:43:46;3.29;86.77
64858;SHT30;51335;51.148;6.950;2022-11-20T00:44:16;3.32;86.80
64858;SHT30;51335;51.148;6.950;2022-11-20T00:44:46;3.32;86.86
64858;SHT30;51335;51.148;6.950;2022-11-20T00:45:17;3.32;86.91
64858;SHT30;51335;51.148;6.950;2022-11-20T00:45:47;3.34;87.00
64858;SHT30;51335;51.148;6.950;2022-11-20T00:46:19;3.34;87.03
64858;SHT30;51335;51.148;6.950;2022-11-20T00:46:50;3.34;87.04
64858;SHT30;51335;51.148;6.950;2022-11-20T00:47:20;3.36;87.14
64858;SHT30;51335;51.148;6.950;2022-11-20T00:47:50;3.36;87.14
64858;SHT30;51335;51.148;6.950;2022-11-20T00:48:21;3.35;87.21
64858;SHT30;51335;51.148;6.950;2022-11-20T00:48:51;3.36;87.19
64858;SHT30;51335;51.148;6.950;2022-11-20T00:49:21;3.35;87.26
64858;SHT30;51335;51.148;6.950;2022-11-20T00:49:51;3.38;87.29
64858;SHT30;51335;51.148;6.950;2022-11-20T00:50:22;3.42;87.29
64858;SHT30;51335;51.148;6.950;2022-11-20T00:50:53;3.45;87.08
64858;SHT30;51335;51.148;6.950;2022-11-20T00:51:25;3.45;86.99
64858;SHT30;51335;51.148;6.950;2022-11-20T00:51:56;3.43;86.92
64858;SHT30;51335;51.148;6.950;2022-11-20T00:52:26;3.42;86.84
64858;SHT30;51335;51.148;6.950;2022-11-20T00:52:56;3.43;86.90
64858;SHT30;51335;51.148;6.950;2022-11-20T00:53:27;3.43;87.02
64858;SHT30;51335;51.148;6.950;2022-11-20T00:53:58;3.46;86.95
64858;SHT30;51335;51.148;6.950;2022-11-20T00:54:28;3.45;86.90
64858;SHT30;51335;51.148;6.950;2022-11-20T00:54:58;3.45;86.93
64858;SHT30;51335;51.148;6.950;2022-11-20T00:55:29;3.46;86.97
64858;SHT30;51335;51.148;6.950;2022-11-20T00:56:01;3.46;86.99
64858;SHT30;51335;51.148;6.950;2022-11-20T00:56:32;3.48;87.04
64858;SHT30;51335;51.148;6.950;2022-11-20T00:57:02;3.48;87.11
64858;SHT30;51335;51.148;6.950;2022-11-20T00:57:32;3.46;87.20
64858;SHT30;51335;51.148;6.950;2022-11-20T00:58:03;3.48;87.28
64858;SHT30;51335;51.148;6.950;2022-11-20T00:58:35;3.49;87.36
64858;SHT30;51335;51.148;6.950;2022-11-20T00:59:06;3.48;87.47
64858;SHT30;51335;51.148;6.950;2022-11-20T00:59:38;3.46;87.52
64858;SHT30;51335;51.148;6.950;2022-11-20T01:00:08;3.46;87.59
64858;SHT30;51335;51.148;6.950;2022-11-20T01:00:39;3.45;87.66
64858;SHT30;51335;51.148;6.950;2022-11-20T01:01:21;3.46;87.78
64858;SHT30;51335;51.148;6.950;2022-11-20T01:01:51;3.49;87.84
64858;SHT30;51335;51.148;6.950;2022-11-20T01:02:21;3.46;87.84
64858;SHT30;51335;51.148;6.950;2022-11-20T01:02:52;3.46;87.83
64858;SHT30;51335;51.148;6.950;2022-11-20T01:03:22;3.45;87.82
64858;SHT30;51335;51.148;6.950;2022-11-20T01:03:54;3.48;87.74
64858;SHT30;51335;51.148;6.950;2022-11-20T01:04:24;3.52;87.41
64858;SHT30;51335;51.148;6.950;2022-11-20T01:04:55;3.53;87.05
64858;SHT30;51335;51.148;6.950;2022-11-20T01:05:25;3.49;86.79
64858;SHT30;51335;51.148;6.950;2022-11-20T01:05:59;3.45;86.83
64858;SHT30;51335;51.148;6.950;2022-11-20T01:06:35;3.40;87.04
64858;SHT30;51335;51.148;6.950;2022-11-20T01:07:05;3.43;87.10
64858;SHT30;51335;51.148;6.950;2022-11-20T01:07:35;3.42;87.19
64858;SHT30;51335;51.148;6.950;2022-11-20T01:08:06;3.36;87.28
64858;SHT30;51335;51.148;6.950;2022-11-20T01:08:36;3.39;87.50
64858;SHT30;51335;51.148;6.950;2022-11-20T01:09:12;3.39;87.50
64858;SHT30;51335;51.148;6.950;2022-11-20T01:09:43;3.36;87.64
64858;SHT30;51335;51.148;6.950;2022-11-20T01:10:13;3.39;87.73
64858;SHT30;51335;51.148;6.950;2022-11-20T01:10:43;3.39;87.72
64858;SHT30;51335;51.148;6.950;2022-11-20T01:11:19;3.39;87.90
64858;SHT30;51335;51.148;6.950;2022-11-20T01:11:50;3.38;87.78
64858;SHT30;51335;51.148;6.950;2022-11-20T01:12:20;3.42;87.78
64858;SHT30;51335;51.148;6.950;2022-11-20T01:12:50;3.43;87.61
64858;SHT30;51335;51.148;6.950;2022-11-20T01:13:20;3.40;87.53
64858;SHT30;51335;51.148;6.950;2022-11-20T01:13:52;3.43;87.51
64858;SHT30;51335;51.148;6.950;2022-11-20T01:14:22;3.40;87.51
64858;SHT30;51335;51.148;6.950;2022-11-20T01:14:52;3.40;87.50
64858;SHT30;51335;51.148;6.950;2022-11-20T01:15:23;3.42;87.46
64858;SHT30;51335;51.148;6.950;2022-11-20T01:15:53;3.39;87.54
64858;SHT30;51335;51.148;6.950;2022-11-20T01:16:29;3.39;87.60
64858;SHT30;51335;51.148;6.950;2022-11-20T01:16:59;3.40;87.58
64858;SHT30;51335;51.148;6.950;2022-11-20T01:17:31;3.42;87.49
64858;SHT30;51335;51.148;6.950;2022-11-20T01:18:01;3.45;87.54
64858;SHT30;51335;51.148;6.950;2022-11-20T01:18:32;3.43;87.54
64858;SHT30;51335;51.148;6.950;2022-11-20T01:19:04;3.42;87.50
64858;SHT30;51335;51.148;6.950;2022-11-20T01:19:34;3.43;87.58
64858;SHT30;51335;51.148;6.950;2022-11-20T01:20:05;3.45;87.55
64858;SHT30;51335;51.148;6.950;2022-11-20T01:20:36;3.46;87.62
64858;SHT30;51335;51.148;6.950;2022-11-20T01:21:15;3.45;87.22
64858;SHT30;51335;51.148;6.950;2022-11-20T01:21:49;3.40;87.06
64858;SHT30;51335;51.148;6.950;2022-11-20T01:22:19;3.40;87.22
64858;SHT30;51335;51.148;6.950;2022-11-20T01:22:49;3.42;87.24
64858;SHT30;51335;51.148;6.950;2022-11-20T01:23:19;3.42;87.13
64858;SHT30;51335;51.148;6.950;2022-11-20T01:23:51;3.39;87.22
64858;SHT30;51335;51.148;6.950;2022-11-20T01:24:22;3.43;87.24
64858;SHT30;51335;51.148;6.950;2022-11-20T01:24:52;3.43;87.21
64858;SHT30;51335;51.148;6.950;2022-11-20T01:25:23;3.46;87.23
64858;SHT30;51335;51.148;6.950;2022-11-20T01:25:53;3.46;87.29
64858;SHT30;51335;51.148;6.950;2022-11-20T01:26:26;3.42;87.24
64858;SHT30;51335;51.148;6.950;2022-11-20T01:26:57;3.42;87.19
64858;SHT30;51335;51.148;6.950;2022-11-20T01:27:27;3.43;87.20
64858;SHT30;51335;51.148;6.950;2022-11-20T01:27:57;3.45;87.20
64858;SHT30;51335;51.148;6.950;2022-11-20T01:28:28;3.45;87.12
64858;SHT30;51335;51.148;6.950;2022-11-20T01:29:00;3.42;87.06
64858;SHT30;51335;51.148;6.950;2022-11-20T01:29:30;3.40;87.04
64858;SHT30;51335;51.148;6.950;2022-11-20T01:30:01;3.40;87.13
64858;SHT30;51335;51.148;6.950;2022-11-20T01:30:31;3.36;87.21
64858;SHT30;51335;51.148;6.950;2022-11-20T01:31:01;3.38;87.22
64858;SHT30;51335;51.148;6.950;2022-11-20T01:31:34;3.36;87.23
64858;SHT30;51335;51.148;6.950;2022-11-20T01:32:04;3.38;87.19
64858;SHT30;51335;51.148;6.950;2022-11-20T01:32:35;3.38;87.26
64858;SHT30;51335;51.148;6.950;2022-11-20T01:33:05;3.38;87.24
64858;SHT30;51335;51.148;6.950;2022-11-20T01:33:35;3.36;87.24
64858;SHT30;51335;51.148;6.950;2022-11-20T01:34:10;3.36;87.24
64858;SHT30;51335;51.148;6.950;2022-11-20T01:34:40;3.32;87.09
64858;SHT30;51335;51.148;6.950;2022-11-20T01:35:11;3.34;87.22
64858;SHT30;51335;51.148;6.950;2022-11-20T01:35:41;3.34;87.17
64858;SHT30;51335;51.148;6.950;2022-11-20T01:36:12;3.36;87.24
64858;SHT30;51335;51.148;6.950;2022-11-20T01:36:43;3.35;87.28
64858;SHT30;51335;51.148;6.950;2022-11-20T01:37:13;3.35;87.26
64858;SHT30;51335;51.148;6.950;2022-11-20T01:37:44;3.36;87.14
64858;SHT30;51335;51.148;6.950;2022-11-20T01:38:17;3.38;87.20
64858;SHT30;51335;51.148;6.950;2022-11-20T01:38:51;3.36;87.24
64858;SHT30;51335;51.148;6.950;2022-11-20T01:39:24;3.38;87.26
64858;SHT30;51335;51.148;6.950;2022-11-20T01:39:54;3.39;87.19
64858;SHT30;51335;51.148;6.950;2022-11-20T01:40:25;3.39;87.06
64858;SHT30;51335;51.148;6.950;2022-11-20T01:40:55;3.39;87.12
64858;SHT30;51335;51.148;6.950;2022-11-20T01:41:29;3.38;87.23
64858;SHT30;51335;51.148;6.950;2022-11-20T01:41:59;3.38;87.36
64858;SHT30;51335;51.148;6.950;2022-11-20T01:42:30;3.38;87.41
64858;SHT30;51335;51.148;6.950;2022-11-20T01:43:16;3.39;87.46
64858;SHT30;51335;51.148;6.950;2022-11-20T01:43:47;3.39;87.48
64858;SHT30;51335;51.148;6.950;2022-11-20T01:44:20;3.42;87.49
64858;SHT30;51335;51.148;6.950;2022-11-20T01:44:55;3.40;87.40
64858;SHT30;51335;51.148;6.950;2022-11-20T01:46:18;3.45;87.40
64858;SHT30;51335;51.148;6.950;2022-11-20T01:47:01;3.45;87.49
64858;SHT30;51335;51.148;6.950;2022-11-20T01:47:38;3.43;87.39
64858;SHT30;51335;51.148;6.950;2022-11-20T01:48:09;3.43;87.45
64858;SHT30;51335;51.148;6.950;2022-11-20T01:49:37;3.39;87.58
64858;SHT30;51335;51.148;6.950;2022-11-20T01:50:16;3.39;87.68
64858;SHT30;51335;51.148;6.950;2022-11-20T01:50:50;3.48;87.63
64858;SHT30;51335;51.148;6.950;2022-11-20T01:52:07;3.45;87.57
64858;SHT30;51335;51.148;6.950;2022-11-20T01:52:48;3.48;87.62
64858;SHT30;51335;51.148;6.950;2022-11-20T01:53:25;3.49;87.63
64858;SHT30;51335;51.148;6.950;2022-11-20T01:53:59;3.46;87.63
64858;SHT30;51335;51.148;6.950;2022-11-20T01:54:36;3.48;87.65
64858;SHT30;51335;51.148;6.950;2022-11-20T01:55:17;3.45;87.55
64858;SHT30;51335;51.148;6.950;2022-11-20T01:55:52;3.48;87.64
64858;SHT30;51335;51.148;6.950;2022-11-20T01:56:23;3.45;87.68
64858;SHT30;51335;51.148;6.950;2022-11-20T01:56:56;3.45;87.66
64858;SHT30;51335;51.148;6.950;2022-11-20T01:57:30;3.43;87.69
64858;SHT30;51335;51.148;6.950;2022-11-20T01:58:02;3.48;87.70
64858;SHT30;51335;51.148;6.950;2022-11-20T01:58:35;3.46;87.51
64858;SHT30;51335;51.148;6.950;2022-11-20T01:59:08;3.45;87.43
64858;SHT30;51335;51.148;6.950;2022-11-20T01:59:43;3.45;87.45
64858;SHT30;51335;51.148;6.950;2022-11-20T02:00:16;3.46;87.36
64858;SHT30;51335;51.148;6.950;2022-11-20T02:00:47;3.46;87.38
64858;SHT30;51335;51.148;6.950;2022-11-20T02:01:17;3.45;87.34
64858;SHT30;51335;51.148;6.950;2022-11-20T02:01:48;3.43;87.23
64858;SHT30;51335;51.148;6.950;2022-11-20T02:02:19;3.45;87.23
64858;SHT30;51335;51.148;6.950;2022-11-20T02:03:06;3.45;87.15
64858;SHT30;51335;51.148;6.950;2022-11-20T02:03:37;3.46;87.17
64858;SHT30;51335;51.148;6.950;2022-11-20T02:04:08;3.46;87.12
64858;SHT30;51335;51.148;6.950;2022-11-20T02:04:38;3.46;87.02
64858;SHT30;51335;51.148;6.950;2022-11-20T02:05:16;3.48;87.02
64858;SHT30;51335;51.148;6.950;2022-11-20T02:07:10;3.52;87.11
64858;SHT30;51335;51.148;6.950;2022-11-20T02:07:41;3.53;87.04
64858;SHT30;51335;51.148;6.950;2022-11-20T02:08:11;3.53;87.10
64858;SHT30;51335;51.148;6.950;2022-11-20T02:08:42;3.56;87.10
64858;SHT30;51335;51.148;6.950;2022-11-20T02:09:13;3.53;87.15
64858;SHT30;51335;51.148;6.950;2022-11-20T02:09:44;3.53;87.22
64858;SHT30;51335;51.148;6.950;2022-11-20T02:10:14;3.56;87.27
64858;SHT30;51335;51.148;6.950;2022-11-20T02:10:45;3.56;87.33
64858;SHT30;51335;51.148;6.950;2022-11-20T02:11:15;3.56;87.42
64858;SHT30;51335;51.148;6.950;2022-11-20T02:11:45;3.53;87.38
64858;SHT30;51335;51.148;6.950;2022-11-20T02:12:16;3.55;87.41
64858;SHT30;51335;51.148;6.950;2022-11-20T02:12:46;3.55;86.77
64858;SHT30;51335;51.148;6.950;2022-11-20T02:13:17;3.52;86.52
64858;SHT30;51335;51.148;6.950;2022-11-20T02:13:48;3.53;86.55
64858;SHT30;51335;51.148;6.950;2022-11-20T02:14:20;3.52;86.66
64858;SHT30;51335;51.148;6.950;2022-11-20T02:14:51;3.58;86.54
64858;SHT30;51335;51.148;6.950;2022-11-20T02:15:21;3.56;86.28
64858;SHT30;51335;51.148;6.950;2022-11-20T02:15:51;3.58;86.25
64858;SHT30;51335;51.148;6.950;2022-11-20T02:16:25;3.58;86.27
64858;SHT30;51335;51.148;6.950;2022-11-20T02:16:55;3.56;86.26
64858;SHT30;51335;51.148;6.950;2022-11-20T02:17:26;3.58;86.18
64858;SHT30;51335;51.148;6.950;2022-11-20T02:17:56;3.56;86.13
64858;SHT30;51335;51.148;6.950;2022-11-20T02:18:27;3.58;86.09
64858;SHT30;51335;51.148;6.950;2022-11-20T02:19:00;3.56;86.11
64858;SHT30;51335;51.148;6.950;2022-11-20T02:19:31;3.58;86.03
64858;SHT30;51335;51.148;6.950;2022-11-20T02:20:02;3.59;85.92
64858;SHT30;51335;51.148;6.950;2022-11-20T02:20:32;3.60;85.87
64858;SHT30;51335;51.148;6.950;2022-11-20T02:21:40;3.58;85.96
64858;SHT30;51335;51.148;6.950;2022-11-20T02:23:12;3.55;85.82
64858;SHT30;51335;51.148;6.950;2022-11-20T02:24:24;3.58;86.09
64858;SHT30;51335;51.148;6.950;2022-11-20T02:24:54;3.53;86.20
64858;SHT30;51335;51.148;6.950;2022-11-20T02:25:26;3.60;86.15
64858;SHT30;51335;51.148;6.950;2022-11-20T02:25:58;3.70;85.96
64858;SHT30;51335;51.148;6.950;2022-11-20T02:26:31;3.73;85.85
64858;SHT30;51335;51.148;6.950;2022-11-20T02:27:15;3.69;85.90
64858;SHT30;51335;51.148;6.950;2022-11-20T02:27:46;3.66;85.87
64858;SHT30;51335;51.148;6.950;2022-11-20T02:28:17;3.60;85.90
64858;SHT30;51335;51.148;6.950;2022-11-20T02:28:48;3.62;85.88
64858;SHT30;51335;51.148;6.950;2022-11-20T02:29:25;3.58;85.96
64858;SHT30;51335;51.148;6.950;2022-11-20T02:30:00;3.58;86.04
64858;SHT30;51335;51.148;6.950;2022-11-20T02:30:31;3.48;86.36
64858;SHT30;51335;51.148;6.950;2022-11-20T02:31:01;3.55;86.35
64858;SHT30;51335;51.148;6.950;2022-11-20T02:31:40;3.56;85.85
64858;SHT30;51335;51.148;6.950;2022-11-20T02:32:22;3.49;85.97
64858;SHT30;51335;51.148;6.950;2022-11-20T02:32:53;3.49;86.14
64858;SHT30;51335;51.148;6.950;2022-11-20T02:33:23;3.45;86.19
64858;SHT30;51335;51.148;6.950;2022-11-20T02:33:57;3.43;86.54
64858;SHT30;51335;51.148;6.950;2022-11-20T02:34:27;3.46;86.62
64858;SHT30;51335;51.148;6.950;2022-11-20T02:35:05;3.39;86.40
64858;SHT30;51335;51.148;6.950;2022-11-20T02:35:41;3.35;86.36
64858;SHT30;51335;51.148;6.950;2022-11-20T02:36:15;3.38;86.67
64858;SHT30;51335;51.148;6.950;2022-11-20T02:36:46;3.40;86.60
64858;SHT30;51335;51.148;6.950;2022-11-20T02:37:19;3.39;86.65
64858;SHT30;51335;51.148;6.950;2022-11-20T02:37:53;3.32;86.68
64858;SHT30;51335;51.148;6.950;2022-11-20T02:38:23;3.28;86.77
64858;SHT30;51335;51.148;6.950;2022-11-20T02:38:54;3.28;86.83
64858;SHT30;51335;51.148;6.950;2022-11-20T02:39:25;3.24;86.89
64858;SHT30;51335;51.148;6.950;2022-11-20T02:39:56;3.18;87.08
64858;SHT30;51335;51.148;6.950;2022-11-20T02:40:27;3.14;87.26
64858;SHT30;51335;51.148;6.950;2022-11-20T02:40:57;3.08;87.38
64858;SHT30;51335;51.148;6.950;2022-11-20T02:41:35;3.01;87.54
64858;SHT30;51335;51.148;6.950;2022-11-20T02:42:06;2.97;87.67
64858;SHT30;51335;51.148;6.950;2022-11-20T02:42:37;2.96;87.65
64858;SHT30;51335;51.148;6.950;2022-11-20T02:43:08;2.90;87.79
64858;SHT30;51335;51.148;6.950;2022-11-20T02:43:38;2.87;88.02
64858;SHT30;51335;51.148;6.950;2022-11-20T02:44:08;2.88;87.98
64858;SHT30;51335;51.148;6.950;2022-11-20T02:44:39;2.90;87.85
64858;SHT30;51335;51.148;6.950;2022-11-20T02:45:09;2.84;87.66
64858;SHT30;51335;51.148;6.950;2022-11-20T02:45:40;2.79;87.78
64858;SHT30;51335;51.148;6.950;2022-11-20T02:46:10;2.74;87.83
64858;SHT30;51335;51.148;6.950;2022-11-20T02:46:40;2.68;87.90
64858;SHT30;51335;51.148;6.950;2022-11-20T02:47:10;2.64;88.05
64858;SHT30;51335;51.148;6.950;2022-11-20T02:47:41;2.57;88.26
64858;SHT30;51335;51.148;6.950;2022-11-20T02:48:11;2.56;88.65
64858;SHT30;51335;51.148;6.950;2022-11-20T02:48:41;2.52;88.76
64858;SHT30;51335;51.148;6.950;2022-11-20T02:49:11;2.50;88.98
64858;SHT30;51335;51.148;6.950;2022-11-20T02:49:42;2.49;89.00
64858;SHT30;51335;51.148;6.950;2022-11-20T02:50:12;2.53;88.84
64858;SHT30;51335;51.148;6.950;2022-11-20T02:50:42;2.45;88.76
64858;SHT30;51335;51.148;6.950;2022-11-20T02:51:13;2.45;88.74
64858;SHT30;51335;51.148;6.950;2022-11-20T02:51:43;2.42;88.78
64858;SHT30;51335;51.148;6.950;2022-11-20T02:52:13;2.38;88.84
64858;SHT30;51335;51.148;6.950;2022-11-20T02:52:44;2.29;88.91
64858;SHT30;51335;51.148;6.950;2022-11-20T02:53:14;2.29;89.07
64858;SHT30;51335;51.148;6.950;2022-11-20T02:53:44;2.26;89.61
64858;SHT30;51335;51.148;6.950;2022-11-20T02:54:14;2.22;89.52
64858;SHT30;51335;51.148;6.950;2022-11-20T02:54:45;2.21;89.61
64858;SHT30;51335;51.148;6.950;2022-11-20T02:55:15;2.19;89.57
64858;SHT30;51335;51.148;6.950;2022-11-20T02:55:45;2.15;89.58
64858;SHT30;51335;51.148;6.950;2022-11-20T02:56:15;2.18;89.68
64858;SHT30;51335;51.148;6.950;2022-11-20T02:56:46;2.22;89.62
64858;SHT30;51335;51.148;6.950;2022-11-20T02:57:16;2.19;89.51
64858;SHT30;51335;51.148;6.950;2022-11-20T02:57:46;2.17;89.52
64858;SHT30;51335;51.148;6.950;2022-11-20T02:58:17;2.11;89.70
64858;SHT30;51335;51.148;6.950;2022-11-20T02:58:47;2.07;89.72
64858;SHT30;51335;51.148;6.950;2022-11-20T02:59:17;2.07;89.92
64858;SHT30;51335;51.148;6.950;2022-11-20T02:59:48;2.01;90.45
64858;SHT30;51335;51.148;6.950;2022-11-20T03:00:18;1.98;90.35
64858;SHT30;51335;51.148;6.950;2022-11-20T03:00:48;1.94;90.45
64858;SHT30;51335;51.148;6.950;2022-11-20T03:01:19;1.88;90.48
64858;SHT30;51335;51.148;6.950;2022-11-20T03:01:49;1.87;90.70
64858;SHT30;51335;51.148;6.950;2022-11-20T03:02:19;1.81;90.70
64858;SHT30;51335;51.148;6.950;2022-11-20T03:02:50;1.78;90.82
64858;SHT30;51335;51.148;6.950;2022-11-20T03:03:20;1.75;91.20
64858;SHT30;51335;51.148;6.950;2022-11-20T03:03:50;1.75;91.21
64858;SHT30;51335;51.148;6.950;2022-11-20T03:04:20;1.74;91.30
64858;SHT30;51335;51.148;6.950;2022-11-20T03:04:51;1.73;91.81
64858;SHT30;51335;51.148;6.950;2022-11-20T03:05:21;1.70;91.86
64858;SHT30;51335;51.148;6.950;2022-11-20T03:05:51;1.67;91.81
64858;SHT30;51335;51.148;6.950;2022-11-20T03:06:21;1.66;91.74
64858;SHT30;51335;51.148;6.950;2022-11-20T03:06:52;1.64;91.86
64858;SHT30;51335;51.148;6.950;2022-11-20T03:07:22;1.64;91.79
64858;SHT30;51335;51.148;6.950;2022-11-20T03:07:52;1.60;91.75
64858;SHT30;51335;51.148;6.950;2022-11-20T03:08:22;1.59;91.71
64858;SHT30;51335;51.148;6.950;2022-11-20T03:08:53;1.59;91.71
64858;SHT30;51335;51.148;6.950;2022-11-20T03:09:23;1.56;91.85
64858;SHT30;51335;51.148;6.950;2022-11-20T03:09:53;1.54;91.84
64858;SHT30;51335;51.148;6.950;2022-11-20T03:10:23;1.51;91.85
64858;SHT30;51335;51.148;6.950;2022-11-20T03:10:54;1.49;91.89
64858;SHT30;51335;51.148;6.950;2022-11-20T03:11:24;1.49;91.97
64858;SHT30;51335;51.148;6.950;2022-11-20T03:11:54;1.47;91.98
64858;SHT30;51335;51.148;6.950;2022-11-20T03:12:24;1.46;92.05
64858;SHT30;51335;51.148;6.950;2022-11-20T03:12:55;1.44;92.12
64858;SHT30;51335;51.148;6.950;2022-11-20T03:13:25;1.46;92.17
64858;SHT30;51335;51.148;6.950;2022-11-20T03:13:55;1.43;92.22
64858;SHT30;51335;51.148;6.950;2022-11-20T03:14:26;1.44;92.24
64858;SHT30;51335;51.148;6.950;2022-11-20T03:14:56;1.46;92.38
64858;SHT30;51335;51.148;6.950;2022-11-20T03:15:26;1.44;92.42
64858;SHT30;51335;51.148;6.950;2022-11-20T03:15:56;1.44;92.48
64858;SHT30;51335;51.148;6.950;2022-11-20T03:16:27;1.46;92.53
64858;SHT30;51335;51.148;6.950;2022-11-20T03:16:57;1.44;92.63
64858;SHT30;51335;51.148;6.950;2022-11-20T03:17:27;1.47;92.71
64858;SHT30;51335;51.148;6.950;2022-11-20T03:17:58;1.47;92.93
64858;SHT30;51335;51.148;6.950;2022-11-20T03:18:28;1.50;92.88
64858;SHT30;51335;51.148;6.950;2022-11-20T03:18:59;1.53;92.88
64858;SHT30;51335;51.148;6.950;2022-11-20T03:19:30;1.56;92.99
64858;SHT30;51335;51.148;6.950;2022-11-20T03:20:00;1.56;92.98
64858;SHT30;51335;51.148;6.950;2022-11-20T03:20:32;1.61;92.97
64858;SHT30;51335;51.148;6.950;2022-11-20T03:21:03;1.67;92.97
64858;SHT30;51335;51.148;6.950;2022-11-20T03:21:33;1.70;92.96
64858;SHT30;51335;51.148;6.950;2022-11-20T03:22:03;1.77;92.87
64858;SHT30;51335;51.148;6.950;2022-11-20T03:22:34;1.78;92.85
64858;SHT30;51335;51.148;6.950;2022-11-20T03:23:04;1.81;92.77
64858;SHT30;51335;51.148;6.950;2022-11-20T03:23:35;1.82;92.81
64858;SHT30;51335;51.148;6.950;2022-11-20T03:24:06;1.87;92.76
64858;SHT30;51335;51.148;6.950;2022-11-20T03:24:36;1.88;92.72
64858;SHT30;51335;51.148;6.950;2022-11-20T03:25:07;1.91;92.73
64858;SHT30;51335;51.148;6.950;2022-11-20T03:25:37;1.91;92.73
64858;SHT30;51335;51.148;6.950;2022-11-20T03:26:45;1.97;92.72
64858;SHT30;51335;51.148;6.950;2022-11-20T03:27:15;1.99;92.74
64858;SHT30;51335;51.148;6.950;2022-11-20T03:27:45;1.98;92.71
64858;SHT30;51335;51.148;6.950;2022-11-20T03:28:15;2.01;92.74